createdAt,value
2018-01-30T00:00:00.054Z,32.70
2018-01-30T00:02:27.607Z,35.37
2018-01-30T00:04:55.168Z,33.47
2018-01-30T00:07:22.834Z,31.13
2018-01-30T00:09:50.382Z,44.73
2018-01-30T00:12:17.943Z,38.93
2018-01-30T00:14:45.528Z,75.87
2018-01-30T00:17:13.162Z,113.50
2018-01-30T00:19:40.943Z,68.53
2018-01-30T00:22:08.628Z,90.33
2018-01-30T00:24:36.740Z,89.80
2018-01-30T00:27:04.260Z,86.57
2018-01-30T00:29:31.803Z,84.30
2018-01-30T00:31:59.312Z,83.50
2018-01-30T00:34:26.857Z,79.27
2018-01-30T00:36:54.549Z,66.33
2018-01-30T00:39:22.067Z,72.07
2018-01-30T00:41:49.601Z,73.87
2018-01-30T00:44:17.108Z,65.37
2018-01-30T00:46:44.653Z,51.77
2018-01-30T00:49:12.332Z,74.23
2018-01-30T00:51:39.855Z,70.90
2018-01-30T00:54:07.453Z,52.53
2018-01-30T00:56:34.986Z,55.77
2018-01-30T00:59:02.500Z,63.80
2018-01-30T01:01:30.325Z,61.63
2018-01-30T01:03:57.868Z,55.00
2018-01-30T01:06:25.414Z,62.97
2018-01-30T01:08:52.948Z,68.90
2018-01-30T01:11:20.458Z,63.27
2018-01-30T01:13:48.142Z,60.53
2018-01-30T01:16:15.714Z,73.77
2018-01-30T01:18:43.258Z,44.37
2018-01-30T01:21:10.807Z,62.53
2018-01-30T01:23:38.345Z,55.27
2018-01-30T01:26:06.173Z,53.10
2018-01-30T01:28:33.756Z,46.97
2018-01-30T01:31:01.503Z,55.87
2018-01-30T01:33:29.061Z,49.90
2018-01-30T01:35:56.613Z,54.67
2018-01-30T01:38:24.173Z,65.70
2018-01-30T01:40:51.721Z,66.47
2018-01-30T01:43:19.408Z,68.53
2018-01-30T01:45:46.944Z,62.40
2018-01-30T01:48:14.512Z,66.60
2018-01-30T01:50:42.030Z,72.93
2018-01-30T01:53:09.604Z,71.40
2018-01-30T01:55:37.272Z,72.20
2018-01-30T01:58:04.833Z,66.13
2018-01-30T02:00:32.554Z,70.53
2018-01-30T02:03:00.118Z,82.27
2018-01-30T02:05:27.662Z,100.00
2018-01-30T02:07:55.220Z,88.80
2018-01-30T02:10:22.763Z,82.13
2018-01-30T02:12:50.442Z,45.83
2018-01-30T02:15:18.012Z,31.10
2018-01-30T02:17:45.530Z,26.73
2018-01-30T02:20:13.061Z,40.80
2018-01-30T02:22:40.586Z,63.20
2018-01-30T02:25:08.304Z,41.90
2018-01-30T02:27:35.844Z,27.00
2018-01-30T02:30:05.303Z,31.43
2018-01-30T02:32:32.874Z,32.33
2018-01-30T02:35:00.488Z,33.83
2018-01-30T02:37:28.061Z,26.83
2018-01-30T02:39:55.612Z,30.90
2018-01-30T02:42:23.287Z,31.07
2018-01-30T02:44:50.837Z,32.30
2018-01-30T02:47:18.363Z,28.60
2018-01-30T02:49:45.910Z,53.07
2018-01-30T02:52:13.472Z,54.97
2018-01-30T02:54:41.158Z,61.47
2018-01-30T02:57:08.692Z,63.90
2018-01-30T02:59:36.254Z,73.63
2018-01-30T03:02:03.835Z,88.83
2018-01-30T03:04:31.394Z,82.33
2018-01-30T03:06:59.079Z,82.20
2018-01-30T03:09:26.628Z,77.27
2018-01-30T03:11:54.207Z,65.80
2018-01-30T03:14:21.776Z,77.87
2018-01-30T03:16:49.300Z,76.80
2018-01-30T03:19:16.971Z,79.03
2018-01-30T03:21:44.544Z,70.80
2018-01-30T03:24:12.159Z,63.60
2018-01-30T03:26:39.716Z,65.10
2018-01-30T03:29:07.298Z,53.70
2018-01-30T03:31:34.841Z,60.57
2018-01-30T03:34:02.403Z,65.90
2018-01-30T03:36:30.073Z,56.37
2018-01-30T03:38:57.591Z,63.10
2018-01-30T03:41:25.198Z,61.30
2018-01-30T03:43:52.721Z,51.43
2018-01-30T03:46:20.296Z,58.20
2018-01-30T03:48:47.964Z,52.77
2018-01-30T03:51:15.529Z,56.37
2018-01-30T03:53:43.045Z,45.87
2018-01-30T03:56:10.574Z,44.90
2018-01-30T03:58:38.119Z,61.30
2018-01-30T04:01:05.928Z,45.30
2018-01-30T04:03:33.444Z,54.10
2018-01-30T04:06:00.971Z,49.90
2018-01-30T04:08:28.526Z,51.80
2018-01-30T04:10:56.107Z,60.60
2018-01-30T04:13:23.760Z,66.20
2018-01-30T04:15:51.279Z,74.87
2018-01-30T04:18:18.800Z,69.13
2018-01-30T04:20:46.324Z,71.57
2018-01-30T04:23:13.868Z,71.10
2018-01-30T04:25:41.591Z,93.87
2018-01-30T04:28:09.118Z,78.40
2018-01-30T04:30:36.837Z,81.23
2018-01-30T04:33:04.400Z,65.80
2018-01-30T04:35:31.966Z,65.57
2018-01-30T04:37:59.511Z,67.87
2018-01-30T04:40:27.056Z,66.63
2018-01-30T04:42:54.747Z,67.50
2018-01-30T04:45:22.275Z,59.17
2018-01-30T04:47:49.838Z,59.67
2018-01-30T04:50:17.391Z,59.83
2018-01-30T04:52:44.981Z,62.80
2018-01-30T04:55:12.686Z,61.03
2018-01-30T04:57:40.238Z,65.80
2018-01-30T05:00:08.037Z,66.60
2018-01-30T05:02:35.642Z,71.70
2018-01-30T05:05:03.187Z,78.80
2018-01-30T05:07:30.805Z,73.23
2018-01-30T05:09:58.414Z,76.17
2018-01-30T05:12:26.133Z,71.93
2018-01-30T05:14:53.695Z,70.30
2018-01-30T05:17:21.229Z,73.37
2018-01-30T05:19:48.764Z,71.93
2018-01-30T05:22:16.305Z,65.57
2018-01-30T05:24:44.012Z,70.60
2018-01-30T05:27:11.618Z,67.50
2018-01-30T05:29:39.173Z,74.33
2018-01-30T05:32:06.752Z,82.77
2018-01-30T05:34:34.295Z,68.97
2018-01-30T05:37:01.963Z,74.77
2018-01-30T05:39:29.538Z,73.63
2018-01-30T05:41:57.100Z,68.93
2018-01-30T05:44:24.687Z,60.60
2018-01-30T05:46:52.234Z,45.90
2018-01-30T05:49:19.925Z,43.20
2018-01-30T05:51:47.457Z,42.83
2018-01-30T05:54:14.970Z,35.90
2018-01-30T05:56:42.495Z,39.37
2018-01-30T05:59:10.037Z,38.67
2018-01-30T06:01:37.581Z,42.83
2018-01-30T06:04:05.120Z,43.03
2018-01-30T06:06:32.842Z,45.30
2018-01-30T06:09:00.373Z,49.03
2018-01-30T06:11:27.901Z,37.40
2018-01-30T06:13:55.400Z,37.23
2018-01-30T06:16:22.938Z,39.37
2018-01-30T06:18:50.734Z,39.57
2018-01-30T06:21:18.764Z,47.60
2018-01-30T06:23:46.334Z,46.10
2018-01-30T06:26:14.257Z,52.17
2018-01-30T06:28:41.835Z,47.00
2018-01-30T06:31:09.841Z,49.03
2018-01-30T06:33:37.419Z,47.47
2018-01-30T06:36:04.971Z,45.43
2018-01-30T06:38:32.539Z,46.70
2018-01-30T06:41:00.054Z,43.90
2018-01-30T06:43:27.719Z,39.70
2018-01-30T06:45:55.248Z,39.20
2018-01-30T06:48:22.800Z,40.60
2018-01-30T06:50:50.315Z,54.60
2018-01-30T06:53:17.936Z,48.60
2018-01-30T06:55:45.636Z,46.80
2018-01-30T06:58:13.222Z,47.20
2018-01-30T07:00:40.959Z,51.77
2018-01-30T07:03:08.479Z,44.27
2018-01-30T07:05:35.986Z,47.83
2018-01-30T07:08:03.512Z,57.67
2018-01-30T07:10:31.206Z,53.03
2018-01-30T07:12:59.080Z,55.63
2018-01-30T07:15:26.637Z,65.27
2018-01-30T07:17:54.181Z,70.20
2018-01-30T07:20:21.756Z,74.77
2018-01-30T07:22:49.301Z,73.90
2018-01-30T07:25:17.021Z,77.73
2018-01-30T07:27:44.568Z,80.67
2018-01-30T07:30:12.264Z,85.10
2018-01-30T07:32:39.844Z,76.83
2018-01-30T07:35:07.589Z,79.13
2018-01-30T07:37:35.132Z,81.87
2018-01-30T07:40:02.677Z,79.17
2018-01-30T07:42:30.375Z,77.07
2018-01-30T07:44:57.884Z,87.27
2018-01-30T07:47:25.422Z,91.43
2018-01-30T07:49:52.940Z,94.83
2018-01-30T07:52:20.486Z,89.07
2018-01-30T07:54:48.167Z,79.17
2018-01-30T07:57:15.702Z,64.70
2018-01-30T07:59:43.346Z,62.40
2018-01-30T08:02:10.919Z,68.37
2018-01-30T08:04:38.433Z,56.87
2018-01-30T08:07:06.188Z,57.97
2018-01-30T08:09:33.713Z,51.93
2018-01-30T08:12:01.235Z,49.47
2018-01-30T08:14:28.748Z,53.07
2018-01-30T08:16:56.280Z,43.03
2018-01-30T08:19:23.944Z,45.87
2018-01-30T08:21:51.457Z,36.93
2018-01-30T08:24:18.961Z,39.90
2018-01-30T08:26:46.470Z,40.10
2018-01-30T08:29:13.974Z,32.03
2018-01-30T08:31:41.508Z,31.03
2018-01-30T08:34:09.024Z,33.37
2018-01-30T08:36:36.685Z,45.40
2018-01-30T08:39:04.309Z,41.57
2018-01-30T08:41:31.835Z,41.53
2018-01-30T08:43:59.405Z,41.40
2018-01-30T08:46:27.004Z,40.63
2018-01-30T08:48:54.826Z,36.93
2018-01-30T08:51:22.333Z,55.57
2018-01-30T08:53:49.849Z,47.07
2018-01-30T08:56:17.366Z,41.60
2018-01-30T08:58:44.875Z,44.53
2018-01-30T09:01:12.386Z,44.83
2018-01-30T09:03:39.927Z,41.93
2018-01-30T09:06:07.609Z,43.83
2018-01-30T09:08:35.133Z,38.90
2018-01-30T09:11:02.668Z,36.73
2018-01-30T09:13:30.199Z,37.20
2018-01-30T09:15:58.413Z,34.50
2018-01-30T09:18:26.092Z,37.20
2018-01-30T09:20:53.626Z,40.70
2018-01-30T09:23:21.151Z,40.60
2018-01-30T09:25:48.692Z,39.90
2018-01-30T09:28:16.201Z,39.20
2018-01-30T09:30:43.828Z,40.13
2018-01-30T09:33:11.329Z,41.77
2018-01-30T09:35:38.831Z,41.20
2018-01-30T09:38:06.341Z,43.37
2018-01-30T09:40:33.852Z,42.57
2018-01-30T09:43:01.536Z,42.37
2018-01-30T09:45:29.206Z,38.43
2018-01-30T09:47:56.892Z,41.00
2018-01-30T09:50:24.808Z,41.37
2018-01-30T09:52:52.364Z,41.57
2018-01-30T09:55:20.122Z,40.13
2018-01-30T09:57:47.636Z,37.83
2018-01-30T10:00:16.023Z,40.20
2018-01-30T10:02:43.565Z,39.70
2018-01-30T10:05:11.094Z,39.10
2018-01-30T10:07:39.541Z,38.27
2018-01-30T10:10:07.110Z,38.27
2018-01-30T10:12:34.749Z,42.33
2018-01-30T10:15:02.311Z,39.60
2018-01-30T10:17:29.855Z,37.50
2018-01-30T10:19:57.379Z,39.47
2018-01-30T10:22:24.904Z,40.30
2018-01-30T10:24:52.549Z,39.63
2018-01-30T10:27:20.246Z,40.30
2018-01-30T10:29:47.760Z,39.43
2018-01-30T10:32:15.279Z,36.80
2018-01-30T10:34:42.844Z,39.20
2018-01-30T10:37:10.520Z,40.23
2018-01-30T10:39:38.033Z,38.50
2018-01-30T10:42:05.623Z,36.33
2018-01-30T10:44:34.291Z,35.77
2018-01-30T10:47:01.792Z,34.70
2018-01-30T10:49:29.430Z,33.20
2018-01-30T10:51:56.946Z,33.90
2018-01-30T10:54:24.489Z,33.10
2018-01-30T10:56:52.045Z,33.77
2018-01-30T10:59:19.533Z,30.70
2018-01-30T11:01:47.066Z,35.07
2018-01-30T11:04:14.568Z,29.73
2018-01-30T11:06:42.243Z,28.90
2018-01-30T11:09:09.769Z,27.03
2018-01-30T11:11:37.321Z,27.80
2018-01-30T11:14:04.864Z,29.50
2018-01-30T11:16:32.389Z,27.60
2018-01-30T11:19:00.048Z,23.90
2018-01-30T11:24:09.656Z,22.10
2018-01-30T11:26:37.172Z,22.13
2018-01-30T11:29:04.694Z,21.20
2018-01-30T11:31:32.206Z,19.57
2018-01-30T11:33:59.718Z,20.27
2018-01-30T11:36:27.394Z,17.53
2018-01-30T11:38:54.902Z,18.70
2018-01-30T11:41:22.593Z,15.20
2018-01-30T11:43:50.160Z,12.80
2018-01-30T11:46:17.764Z,13.27
2018-01-30T11:48:45.440Z,12.17
2018-01-30T11:51:12.985Z,6.40
2018-01-30T11:53:40.519Z,5.87
2018-01-30T11:56:08.020Z,4.73
2018-01-30T11:58:35.567Z,6.83
2018-01-30T12:01:03.269Z,5.57
2018-01-30T12:03:30.789Z,4.80
2018-01-30T12:05:58.287Z,4.70
2018-01-30T12:08:25.814Z,4.20
2018-01-30T12:10:53.367Z,5.20
2018-01-30T12:13:22.113Z,3.40
2018-01-30T12:15:49.647Z,3.30
2018-01-30T12:18:17.152Z,2.87
2018-01-30T12:20:44.670Z,2.70
2018-01-30T12:23:12.204Z,3.20
2018-01-30T12:25:39.853Z,3.13
2018-01-30T12:28:07.362Z,2.87
2018-01-30T12:30:35.005Z,3.87
2018-01-30T12:33:02.518Z,3.70
2018-01-30T12:35:30.018Z,2.87
2018-01-30T12:37:57.550Z,4.10
2018-01-30T12:40:25.049Z,3.80
2018-01-30T12:42:52.694Z,4.70
2018-01-30T12:45:20.202Z,2.90
2018-01-30T12:47:47.714Z,3.30
2018-01-30T12:50:15.237Z,1.80
2018-01-30T12:52:42.759Z,3.60
2018-01-30T12:55:10.412Z,2.60
2018-01-30T12:57:37.996Z,2.97
2018-01-30T13:00:09.169Z,2.93
2018-01-30T13:02:36.705Z,3.70
2018-01-30T13:05:04.314Z,2.53
2018-01-30T13:07:31.826Z,4.07
2018-01-30T13:09:59.326Z,3.80
2018-01-30T13:12:27.022Z,3.47
2018-01-30T13:14:54.637Z,3.40
2018-01-30T13:17:22.217Z,2.97
2018-01-30T13:19:49.973Z,3.03
2018-01-30T13:22:18.117Z,3.80
2018-01-30T13:24:45.882Z,3.90
2018-01-30T13:27:13.464Z,3.40
2018-01-30T13:29:42.020Z,3.10
2018-01-30T13:32:09.553Z,2.47
2018-01-30T13:34:37.079Z,3.60
2018-01-30T13:37:04.755Z,3.50
2018-01-30T13:39:32.287Z,3.13
2018-01-30T13:41:59.813Z,3.37
2018-01-30T13:44:27.332Z,3.00
2018-01-30T13:46:54.851Z,3.70
2018-01-30T13:49:22.512Z,3.63
2018-01-30T13:51:50.025Z,3.40
2018-01-30T13:54:17.542Z,3.70
2018-01-30T13:56:45.062Z,3.37
2018-01-30T13:59:12.581Z,3.40
2018-01-30T14:01:40.084Z,3.73
2018-01-30T14:04:07.661Z,2.20
2018-01-30T14:06:35.286Z,2.90
2018-01-30T14:09:02.809Z,4.13
2018-01-30T14:11:30.310Z,4.10
2018-01-30T14:13:57.829Z,3.43
2018-01-30T14:16:25.330Z,2.33
2018-01-30T14:18:52.996Z,4.27
2018-01-30T14:21:20.555Z,3.57
2018-01-30T14:23:48.155Z,3.53
2018-01-30T14:26:15.668Z,2.53
2018-01-30T14:28:43.183Z,3.27
2018-01-30T14:31:10.694Z,4.17
2018-01-30T14:33:38.247Z,2.90
2018-01-30T14:36:05.904Z,2.27
2018-01-30T14:38:33.421Z,2.77
2018-01-30T14:41:00.981Z,2.97
2018-01-30T14:43:28.495Z,2.03
2018-01-30T14:45:56.054Z,3.50
2018-01-30T14:48:23.708Z,4.00
2018-01-30T14:50:51.241Z,2.83
2018-01-30T14:53:18.842Z,3.20
2018-01-30T14:55:46.326Z,3.53
2018-01-30T14:58:13.860Z,4.30
2018-01-30T15:00:41.543Z,3.30
2018-01-30T15:03:09.074Z,2.87
2018-01-30T15:05:36.596Z,4.30
2018-01-30T15:08:04.180Z,9.10
2018-01-30T15:10:31.683Z,7.33
2018-01-30T15:12:59.349Z,4.97
2018-01-30T15:15:26.933Z,5.43
2018-01-30T15:17:54.457Z,8.57
2018-01-30T15:20:22.776Z,3.37
2018-01-30T15:22:50.309Z,4.77
2018-01-30T15:25:17.992Z,4.47
2018-01-30T15:27:45.556Z,3.47
2018-01-30T15:30:14.014Z,4.23
2018-01-30T15:32:41.540Z,4.13
2018-01-30T15:35:09.045Z,3.37
2018-01-30T15:37:36.541Z,3.50
2018-01-30T15:40:04.055Z,7.40
2018-01-30T15:42:31.736Z,5.97
2018-01-30T15:44:59.459Z,3.33
2018-01-30T15:47:26.977Z,6.37
2018-01-30T15:49:54.486Z,4.17
2018-01-30T15:52:22.055Z,5.80
2018-01-30T15:54:49.722Z,5.20
2018-01-30T15:57:17.388Z,4.77
2018-01-30T15:59:45.024Z,4.80
2018-01-30T16:02:12.538Z,4.63
2018-01-30T16:04:40.176Z,4.83
2018-01-30T16:07:07.830Z,7.50
2018-01-30T16:09:35.961Z,6.70
2018-01-30T16:12:03.573Z,8.67
2018-01-30T16:14:31.070Z,7.73
2018-01-30T16:16:58.672Z,4.20
2018-01-30T16:19:26.343Z,3.90
2018-01-30T16:21:53.853Z,4.77
2018-01-30T16:24:21.362Z,4.60
2018-01-30T16:26:48.984Z,5.40
2018-01-30T16:29:16.497Z,7.23
2018-01-30T16:31:43.999Z,4.43
2018-01-30T16:34:11.687Z,5.40
2018-01-30T16:36:39.378Z,7.50
2018-01-30T16:39:07.041Z,6.10
2018-01-30T16:41:34.571Z,6.93
2018-01-30T16:44:02.378Z,6.67
2018-01-30T16:46:30.027Z,5.93
2018-01-30T16:48:58.336Z,7.80
2018-01-30T16:51:25.867Z,6.60
2018-01-30T16:53:53.357Z,6.83
2018-01-30T16:56:20.920Z,15.87
2018-01-30T16:58:48.532Z,6.57
2018-01-30T17:01:16.100Z,6.37
2018-01-30T17:03:43.700Z,6.70
2018-01-30T17:06:11.342Z,8.83
2018-01-30T17:08:38.863Z,7.23
2018-01-30T17:11:06.382Z,6.13
2018-01-30T17:13:33.928Z,7.03
2018-01-30T17:16:01.467Z,6.80
2018-01-30T17:18:29.211Z,5.03
2018-01-30T17:20:56.805Z,6.47
2018-01-30T17:23:25.244Z,6.33
2018-01-30T17:25:52.770Z,8.30
2018-01-30T17:28:20.477Z,6.60
2018-01-30T17:30:48.126Z,7.77
2018-01-30T17:33:15.663Z,7.13
2018-01-30T17:35:43.317Z,6.60
2018-01-30T17:38:10.978Z,6.90
2018-01-30T17:40:38.502Z,6.10
2018-01-30T17:43:06.141Z,4.57
2018-01-30T17:45:33.656Z,6.00
2018-01-30T17:48:01.169Z,4.80
2018-01-30T17:50:28.722Z,6.00
2018-01-30T17:52:56.248Z,7.27
2018-01-30T17:55:23.900Z,7.37
2018-01-30T17:57:51.486Z,7.83
2018-01-30T18:00:19.236Z,7.37
2018-01-30T18:02:46.760Z,7.73
2018-01-30T18:05:14.269Z,6.93
2018-01-30T18:07:41.812Z,11.87
2018-01-30T18:10:09.454Z,9.17
2018-01-30T18:12:37.172Z,7.17
2018-01-30T18:15:04.742Z,7.23
2018-01-30T18:17:32.276Z,7.60
2018-01-30T18:19:59.812Z,7.63
2018-01-30T18:22:27.348Z,6.37
2018-01-30T18:24:55.024Z,7.90
2018-01-30T18:27:22.555Z,6.33
2018-01-30T18:29:50.062Z,6.83
2018-01-30T18:32:17.567Z,6.33
2018-01-30T18:34:45.129Z,7.60
2018-01-30T18:37:12.874Z,7.57
2018-01-30T18:39:45.672Z,6.77
2018-01-30T18:42:13.484Z,6.00
2018-01-30T18:44:41.978Z,9.37
2018-01-30T18:47:09.736Z,7.67
2018-01-30T18:49:38.071Z,6.00
2018-01-30T18:52:05.629Z,3.20
2018-01-30T18:54:33.380Z,4.07
2018-01-30T18:57:01.141Z,6.33
2018-01-30T18:59:28.708Z,3.40
2018-01-30T19:01:56.341Z,5.47
2018-01-30T19:04:23.976Z,6.97
2018-01-30T19:06:51.943Z,7.73
2018-01-30T19:09:19.610Z,8.10
2018-01-30T19:11:47.321Z,6.87
2018-01-30T19:14:16.028Z,7.60
2018-01-30T19:16:44.368Z,7.23
2018-01-30T19:19:20.377Z,8.10
2018-01-30T19:21:50.823Z,7.60
2018-01-30T19:24:22.570Z,8.73
2018-01-30T19:26:53.262Z,9.70
2018-01-30T19:29:22.354Z,6.73
2018-01-30T19:31:52.103Z,9.53
2018-01-30T19:34:20.112Z,9.50
2018-01-30T19:36:51.612Z,10.03
2018-01-30T19:39:20.150Z,5.73
2018-01-30T19:41:52.193Z,6.80
2018-01-30T19:44:21.322Z,6.90
2018-01-30T19:46:49.023Z,5.60
2018-01-30T19:49:17.723Z,7.47
2018-01-30T19:51:45.372Z,9.50
2018-01-30T19:54:13.024Z,9.83
2018-01-30T19:56:40.651Z,7.40
2018-01-30T19:59:08.234Z,6.67
2018-01-30T20:01:35.933Z,6.83
2018-01-30T20:04:04.478Z,5.70
2018-01-30T20:06:32.150Z,6.00
2018-01-30T20:08:59.700Z,6.93
2018-01-30T20:11:27.213Z,5.30
2018-01-30T20:13:54.733Z,7.73
2018-01-30T20:16:22.294Z,5.20
2018-01-30T20:18:50.044Z,7.60
2018-01-30T20:21:18.568Z,6.57
2018-01-30T20:23:46.125Z,7.27
2018-01-30T20:26:13.767Z,9.20
2018-01-30T20:28:42.160Z,7.50
2018-01-30T20:31:09.924Z,10.50
2018-01-30T20:33:37.566Z,9.30
2018-01-30T21:23:08.792Z,5.50
2018-01-30T21:25:36.327Z,6.23
2018-01-30T21:28:03.851Z,4.60
2018-01-30T21:30:31.566Z,4.40
2018-01-30T21:32:59.130Z,4.33
2018-01-30T21:35:26.710Z,3.80
2018-01-30T21:37:54.264Z,4.33
2018-01-30T21:40:21.785Z,4.03
2018-01-30T21:42:50.218Z,4.60
2018-01-30T21:45:18.620Z,3.50
2018-01-30T21:47:46.217Z,3.30
2018-01-30T21:50:13.754Z,4.70
2018-01-30T21:52:41.270Z,3.50
2018-01-30T21:55:08.935Z,3.03
2018-01-30T21:57:36.472Z,5.70
2018-01-30T22:00:08.049Z,5.93
2018-01-30T22:02:35.607Z,9.13
2018-01-30T22:05:03.172Z,8.30
2018-01-30T22:07:30.736Z,8.87
2018-01-30T22:09:58.330Z,8.73
2018-01-30T22:12:25.994Z,8.90
2018-01-30T22:14:53.621Z,7.43
2018-01-30T22:17:21.105Z,8.33
2018-01-30T22:19:48.717Z,6.60
2018-01-30T22:22:16.310Z,6.10
2018-01-30T22:24:44.083Z,5.10
2018-01-30T22:27:11.619Z,5.50
2018-01-30T22:29:39.278Z,5.27
2018-01-30T22:32:06.829Z,5.70
2018-01-30T22:34:34.576Z,5.00
2018-01-30T22:37:02.355Z,5.80
2018-01-30T22:39:29.920Z,5.43
2018-01-30T22:41:57.518Z,4.97
2018-01-30T22:44:30.036Z,4.90
2018-01-30T22:46:53.245Z,6.30
